Time;durP1;ratioP1;P1;durP2;ratioP2;P2;SDS_P1;SDS_P2;PMS_P1;PMS_P2;Temp;Humidity;BMP_temperature;BMP_pressure;BME280_temperature;BME280_humidity;BME280_pressure;Samples;Min_cycle;Max_cycle;Signal;HPM_P1;HPM_P2
2023/01/12 00:00:57;;;;;;;18.50;12.40;;;2.50;96.80;;;;;;5036079;28;20474;-66
2023/01/12 00:03:22;;;;;;;21.47;11.60;;;2.50;96.90;;;;;;5027955;28;20191;-66
2023/01/12 00:05:48;;;;;;;22.50;13.80;;;2.50;96.80;;;;;;5015792;28;20653;-66
2023/01/12 00:08:14;;;;;;;19.07;12.20;;;2.50;97.00;;;;;;5032433;28;20253;-66
2023/01/12 00:10:39;;;;;;;21.47;13.20;;;2.50;97.10;;;;;;5019900;28;20194;-66
2023/01/12 00:13:05;;;;;;;18.27;12.07;;;2.50;97.10;;;;;;5015140;28;20196;-67
2023/01/12 00:16:33;;;;;;;20.23;13.10;;;2.50;97.10;;;;;;5015630;28;20195;-66
2023/01/12 00:18:21;;;;;;;19.57;12.63;;;2.50;97.20;;;;;;5037676;28;20195;-66
2023/01/12 00:20:48;;;;;;;21.27;13.60;;;2.50;96.80;;;;;;5006956;28;20466;-66
2023/01/12 00:23:13;;;;;;;20.73;12.73;;;2.50;96.90;;;;;;5020825;28;20223;-67
2023/01/12 00:25:39;;;;;;;17.90;12.27;;;2.50;97.20;;;;;;5020056;28;20462;-67
2023/01/12 00:28:05;;;;;;;19.90;13.57;;;2.50;97.20;;;;;;5008405;28;20198;-67
2023/01/12 00:30:31;;;;;;;23.60;14.87;;;2.50;97.20;;;;;;5016369;28;20206;-67
2023/01/12 00:32:57;;;;;;;18.97;13.10;;;2.40;96.30;;;;;;5018577;28;20453;-67
2023/01/12 00:35:22;;;;;;;20.67;13.77;;;2.40;96.80;;;;;;5010611;28;20211;-67
2023/01/12 00:37:48;;;;;;;26.97;14.23;;;2.40;96.70;;;;;;5016893;28;20195;-67
2023/01/12 00:40:14;;;;;;;24.27;15.20;;;2.40;97.00;;;;;;5014456;28;20207;-67
2023/01/12 00:45:24;;;;;;;21.23;14.57;;;2.30;97.10;;;;;;5029792;28;20191;-67
2023/01/12 00:47:51;;;;;;;20.73;14.13;;;2.30;97.10;;;;;;5028937;28;20432;-67
2023/01/12 00:50:16;;;;;;;23.03;13.53;;;2.30;97.30;;;;;;5014563;28;20501;-67
2023/01/12 00:52:42;;;;;;;21.60;12.90;;;2.30;97.30;;;;;;5024321;28;20426;-67
2023/01/12 00:55:08;;;;;;;23.43;14.17;;;2.30;97.30;;;;;;5015527;28;20196;-67
2023/01/12 00:57:33;;;;;;;20.83;13.80;;;2.30;97.40;;;;;;5027039;28;20186;-67
2023/01/12 00:59:59;;;;;;;21.63;12.27;;;2.30;97.30;;;;;;4999613;28;20243;-67
2023/01/12 01:02:28;;;;;;;17.67;12.90;;;2.30;97.30;;;;;;5008858;28;20289;-67
2023/01/12 01:04:55;;;;;;;17.20;12.77;;;2.30;97.40;;;;;;5009934;28;20305;-67
2023/01/12 01:07:20;;;;;;;21.33;13.73;;;2.20;97.10;;;;;;5025684;28;20474;-67
2023/01/12 01:09:46;;;;;;;21.80;13.03;;;2.20;96.10;;;;;;5013163;28;20494;-67
2023/01/12 01:12:12;;;;;;;18.63;13.13;;;2.10;96.40;;;;;;5024166;28;20180;-67
2023/01/12 01:14:38;;;;;;;19.33;14.03;;;2.20;97.00;;;;;;5024988;28;20184;-67
2023/01/12 01:17:04;;;;;;;20.23;12.80;;;2.20;97.20;;;;;;5012562;28;20187;-67
2023/01/12 01:19:31;;;;;;;19.83;13.30;;;2.10;97.10;;;;;;5005858;28;20449;-67
2023/01/12 01:21:57;;;;;;;18.97;13.30;;;2.10;96.90;;;;;;5007049;28;20285;-67
2023/01/12 01:24:22;;;;;;;18.70;12.77;;;2.10;96.50;;;;;;5023516;28;20516;-67
2023/01/12 01:26:50;;;;;;;24.83;13.17;;;2.00;96.80;;;;;;5005979;28;20180;-67
2023/01/12 01:29:15;;;;;;;19.70;12.67;;;2.10;97.20;;;;;;5031251;28;20183;-67
2023/01/12 01:31:41;;;;;;;23.97;12.93;;;2.00;97.20;;;;;;5033149;28;20457;-67
2023/01/12 01:34:07;;;;;;;19.03;12.53;;;2.00;97.40;;;;;;5014967;28;20198;-67
2023/01/12 01:36:33;;;;;;;20.67;12.60;;;2.00;97.60;;;;;;5023520;28;20198;-67
2023/01/12 01:38:59;;;;;;;19.20;11.50;;;2.00;97.50;;;;;;5017649;28;20299;-67
2023/01/12 01:41:31;;;;;;;21.40;11.77;;;2.00;97.20;;;;;;5028375;28;20708;-67
2023/01/12 01:44:01;;;;;;;17.93;12.10;;;2.00;97.40;;;;;;5028936;28;20207;-67
2023/01/12 01:46:42;;;;;;;18.30;11.93;;;2.00;97.50;;;;;;5036721;28;20434;-67
2023/01/12 01:49:42;;;;;;;17.83;10.47;;;2.00;97.80;;;;;;5043443;28;20434;-67
2023/01/12 01:52:12;;;;;;;16.97;11.20;;;2.00;97.90;;;;;;5037977;28;20426;-67
2023/01/12 01:54:56;;;;;;;14.97;11.07;;;2.00;98.00;;;;;;5038444;28;20467;-67
2023/01/12 01:57:32;;;;;;;15.93;10.70;;;2.00;98.00;;;;;;5030225;28;20424;-67
2023/01/12 01:59:59;;;;;;;15.23;10.50;;;2.00;98.00;;;;;;5033377;28;20463;-67
2023/01/12 02:02:25;;;;;;;17.77;10.90;;;2.00;98.20;;;;;;5047777;28;20433;-67
2023/01/12 02:04:53;;;;;;;14.03;9.87;;;2.00;97.40;;;;;;5034001;28;20433;-67
2023/01/12 02:07:18;;;;;;;18.53;11.10;;;2.00;97.60;;;;;;5015839;28;20486;-66
2023/01/12 02:09:44;;;;;;;20.40;11.60;;;2.00;97.70;;;;;;5018193;28;20426;-67
2023/01/12 02:17:42;;;;;;;18.07;12.10;;;2.00;98.20;;;;;;5029615;28;20421;-66
2023/01/12 02:20:47;;;;;;;14.33;10.27;;;2.00;98.00;;;;;;5037050;28;20542;-66
2023/01/12 02:23:21;;;;;;;14.80;10.30;;;2.00;98.00;;;;;;5023329;28;20438;-66
2023/01/12 02:25:53;;;;;;;15.13;9.73;;;2.00;98.20;;;;;;5031535;28;20422;-66
2023/01/12 02:28:38;;;;;;;14.63;9.90;;;2.00;98.10;;;;;;5028111;28;20457;-67
2023/01/12 02:31:25;;;;;;;15.60;10.20;;;2.00;98.20;;;;;;5039675;28;20430;-67
2023/01/12 02:34:29;;;;;;;15.03;10.17;;;2.00;98.00;;;;;;5031022;28;20951;-67
2023/01/12 02:37:07;;;;;;;17.07;10.23;;;2.00;97.70;;;;;;5026511;28;20502;-66
2023/01/12 02:40:02;;;;;;;15.50;9.63;;;2.00;97.60;;;;;;5042020;28;20440;-67
2023/01/12 02:42:55;;;;;;;13.13;9.20;;;2.00;98.10;;;;;;5024595;28;20434;-66
2023/01/12 02:45:56;;;;;;;15.60;10.37;;;2.00;98.30;;;;;;5024722;28;20429;-66
2023/01/12 02:48:54;;;;;;;12.70;8.37;;;2.00;98.40;;;;;;5027657;28;20494;-67
2023/01/12 02:51:36;;;;;;;16.30;10.13;;;2.00;98.40;;;;;;5025565;28;20426;-66
2023/01/12 02:54:07;;;;;;;12.90;9.57;;;1.90;97.70;;;;;;5021058;28;20414;-67
2023/01/12 02:56:55;;;;;;;13.00;9.00;;;2.00;98.20;;;;;;5030954;28;20419;-67
2023/01/12 02:59:27;;;;;;;13.43;8.57;;;2.00;98.40;;;;;;5035301;28;20975;-67
2023/01/12 03:01:57;;;;;;;12.03;9.67;;;2.00;98.20;;;;;;5024961;28;20515;-67
2023/01/12 03:04:24;;;;;;;15.40;9.17;;;2.00;98.30;;;;;;5039898;28;20430;-67
2023/01/12 03:06:56;;;;;;;14.87;9.00;;;2.00;98.40;;;;;;5016553;28;20437;-67
2023/01/12 03:09:26;;;;;;;14.27;8.20;;;2.00;98.30;;;;;;5033374;28;20439;-67
2023/01/12 03:11:59;;;;;;;11.60;8.47;;;2.00;98.50;;;;;;5028221;28;20423;-67
2023/01/12 03:14:27;;;;;;;13.57;8.60;;;2.00;98.60;;;;;;5026558;28;20441;-67
2023/01/12 03:16:55;;;;;;;10.73;8.40;;;2.00;98.60;;;;;;5027124;28;20487;-66
2023/01/12 03:19:28;;;;;;;10.40;8.70;;;2.00;98.60;;;;;;5033762;28;20450;-67
2023/01/12 03:21:55;;;;;;;17.10;9.57;;;1.90;98.60;;;;;;5019578;28;20486;-67
2023/01/12 03:24:47;;;;;;;12.97;9.37;;;1.90;98.70;;;;;;5037065;28;20504;-67
2023/01/12 03:27:20;;;;;;;12.20;8.50;;;1.90;98.60;;;;;;5031836;28;20430;-67
2023/01/12 03:29:59;;;;;;;12.63;8.90;;;1.90;98.70;;;;;;5017479;28;20426;-67
2023/01/12 03:32:26;;;;;;;13.53;8.67;;;2.00;98.80;;;;;;5028403;28;20430;-67
2023/01/12 03:34:52;;;;;;;13.23;7.57;;;1.90;98.70;;;;;;5028747;28;20460;-67
2023/01/12 03:37:33;;;;;;;12.67;8.53;;;2.00;98.80;;;;;;5026162;28;20422;-67
2023/01/12 03:40:10;;;;;;;12.87;8.67;;;2.00;98.80;;;;;;5028503;28;20457;-67
2023/01/12 03:43:00;;;;;;;9.77;7.13;;;2.00;98.80;;;;;;5016009;28;20418;-67
2023/01/12 03:45:38;;;;;;;12.53;7.70;;;2.00;98.80;;;;;;5024355;28;20554;-67
2023/01/12 03:48:12;;;;;;;14.73;7.97;;;2.00;98.90;;;;;;5044396;28;20435;-67
2023/01/12 03:50:53;;;;;;;10.53;8.20;;;2.00;99.00;;;;;;5035793;28;20434;-68
2023/01/12 03:53:22;;;;;;;11.20;7.80;;;2.00;99.00;;;;;;5043582;28;20479;-67
2023/01/12 03:55:51;;;;;;;10.80;7.70;;;2.00;99.00;;;;;;5036170;28;20443;-67
2023/01/12 03:58:17;;;;;;;12.80;8.93;;;2.00;98.90;;;;;;5043137;28;20524;-67
2023/01/12 04:00:43;;;;;;;12.97;7.90;;;2.00;99.00;;;;;;5027392;28;20988;-67
2023/01/12 04:03:16;;;;;;;8.93;6.67;;;2.00;98.80;;;;;;5024753;28;20441;-67
2023/01/12 04:05:43;;;;;;;12.47;7.77;;;2.00;98.80;;;;;;5008485;28;20184;-67
2023/01/12 04:08:10;;;;;;;11.57;7.00;;;2.00;99.00;;;;;;5005391;28;20470;-67
2023/01/12 04:10:36;;;;;;;10.53;7.00;;;2.00;98.90;;;;;;5026201;28;20438;-64
2023/01/12 04:13:02;;;;;;;13.07;7.50;;;2.00;99.10;;;;;;5023970;28;20425;-64
2023/01/12 04:15:27;;;;;;;9.90;6.40;;;2.10;99.10;;;;;;5003137;28;20207;-65
2023/01/12 04:17:53;;;;;;;11.37;5.90;;;2.00;99.10;;;;;;5018730;28;20190;-67
2023/01/12 04:20:19;;;;;;;12.17;7.07;;;2.10;99.20;;;;;;5025215;28;20290;-66
2023/01/12 04:22:45;;;;;;;11.13;6.60;;;2.10;99.10;;;;;;5024020;28;20191;-66
2023/01/12 04:25:16;;;;;;;11.80;6.87;;;2.10;98.90;;;;;;5021402;28;20215;-66
2023/01/12 04:27:54;;;;;;;9.57;6.77;;;2.10;99.10;;;;;;5028930;28;20453;-66
2023/01/12 04:30:23;;;;;;;8.77;5.73;;;2.10;99.20;;;;;;5039733;28;20425;-66
2023/01/12 04:32:49;;;;;;;11.20;6.63;;;2.10;99.20;;;;;;5018436;28;20438;-66
2023/01/12 04:35:16;;;;;;;10.10;6.50;;;2.10;99.10;;;;;;5004399;28;20431;-67
2023/01/12 04:37:43;;;;;;;11.37;6.47;;;2.10;99.00;;;;;;5045346;28;20434;-66
2023/01/12 04:40:11;;;;;;;9.57;5.87;;;2.10;99.00;;;;;;5022136;28;20485;-66
2023/01/12 04:45:21;;;;;;;10.17;6.40;;;2.10;99.00;;;;;;5044596;28;20433;-66
2023/01/12 04:47:47;;;;;;;9.53;5.17;;;2.10;98.90;;;;;;5028535;28;20425;-66
2023/01/12 04:50:13;;;;;;;8.40;5.57;;;2.00;98.70;;;;;;5026610;28;20266;-66
2023/01/12 04:52:39;;;;;;;7.13;5.37;;;2.00;98.80;;;;;;5042428;28;20195;-66
2023/01/12 04:55:06;;;;;;;6.57;5.50;;;1.90;98.60;;;;;;5040823;28;20492;-66
2023/01/12 04:57:31;;;;;;;9.50;5.77;;;2.00;98.90;;;;;;4998305;28;20194;-66
2023/01/12 04:59:57;;;;;;;11.33;5.20;;;2.00;99.10;;;;;;5025567;28;20440;-66
2023/01/12 05:02:23;;;;;;;7.13;4.87;;;2.00;99.10;;;;;;5011787;28;20195;-67
2023/01/12 05:04:49;;;;;;;7.17;5.07;;;2.00;99.20;;;;;;5030152;28;20187;-66
2023/01/12 05:07:14;;;;;;;7.17;5.40;;;2.00;98.90;;;;;;5019651;28;20196;-66
2023/01/12 05:12:25;;;;;;;6.57;5.03;;;2.00;98.90;;;;;;5014703;28;20202;-67
2023/01/12 05:14:52;;;;;;;9.30;6.17;;;1.90;98.20;;;;;;5031537;28;20414;-66
2023/01/12 05:17:18;;;;;;;9.13;5.47;;;1.80;97.80;;;;;;5026539;28;20449;-68
2023/01/12 05:19:43;;;;;;;7.50;5.10;;;1.80;98.20;;;;;;5024413;28;20423;-67
2023/01/12 05:22:09;;;;;;;8.60;5.00;;;1.80;98.30;;;;;;5017002;28;20442;-67
2023/01/12 05:24:35;;;;;;;9.00;5.83;;;1.80;98.40;;;;;;5021247;28;20214;-67
2023/01/12 05:27:01;;;;;;;8.23;5.57;;;1.80;98.40;;;;;;5011528;28;20195;-68
2023/01/12 05:29:27;;;;;;;7.47;4.90;;;1.80;98.50;;;;;;5014592;28;20203;-67
2023/01/12 05:31:53;;;;;;;7.90;5.43;;;1.80;98.60;;;;;;5017939;28;20459;-68
2023/01/12 05:34:19;;;;;;;10.83;5.80;;;1.80;98.80;;;;;;5018471;28;20437;-67
2023/01/12 05:36:46;;;;;;;9.00;5.63;;;1.80;98.80;;;;;;5014562;28;20291;-66
2023/01/12 05:39:12;;;;;;;10.67;5.67;;;1.80;98.80;;;;;;5021154;28;20493;-66
2023/01/12 05:43:48;;;;;;;5.90;4.87;;;1.80;99.00;;;;;;5022961;28;20506;-66
2023/01/12 05:44:23;;;;;;;8.77;5.63;;;1.80;98.30;;;;;;5032358;28;20206;-65
2023/01/12 05:46:49;;;;;;;9.70;5.80;;;1.80;98.10;;;;;;5014917;28;20993;-65
2023/01/12 05:49:14;;;;;;;9.47;5.50;;;1.90;98.30;;;;;;5023868;28;20187;-65
2023/01/12 05:51:40;;;;;;;8.10;5.53;;;1.90;98.40;;;;;;5004125;28;20249;-65
2023/01/12 05:54:06;;;;;;;7.43;5.27;;;1.90;98.50;;;;;;5005394;28;20556;-65
2023/01/12 05:56:32;;;;;;;9.17;5.53;;;1.90;98.40;;;;;;5005840;28;20199;-65
2023/01/12 05:59:00;;;;;;;9.27;5.60;;;1.90;98.40;;;;;;5025567;28;20257;-65
2023/01/12 06:01:27;;;;;;;9.77;5.33;;;1.90;98.60;;;;;;5011450;28;20519;-66
2023/01/12 06:03:55;;;;;;;9.70;5.77;;;1.90;98.20;;;;;;5023778;28;20522;-66
2023/01/12 06:06:23;;;;;;;8.03;4.73;;;1.90;98.30;;;;;;5033219;28;20458;-67
2023/01/12 06:08:50;;;;;;;6.13;4.70;;;1.90;98.40;;;;;;5025810;28;20485;-67
2023/01/12 06:14:01;;;;;;;9.60;4.97;;;1.80;98.40;;;;;;5030761;28;20412;-67
2023/01/12 06:16:28;;;;;;;8.07;4.97;;;1.80;98.20;;;;;;5007816;28;20434;-67
2023/01/12 06:18:54;;;;;;;7.27;5.13;;;1.80;98.40;;;;;;5020856;28;20423;-67
2023/01/12 06:21:19;;;;;;;7.67;4.70;;;1.80;98.30;;;;;;5018800;28;20469;-67
2023/01/12 06:23:45;;;;;;;7.47;4.83;;;1.80;98.20;;;;;;5016242;28;20433;-67
2023/01/12 06:26:11;;;;;;;8.40;4.83;;;1.80;98.20;;;;;;5002872;28;20201;-66
2023/01/12 06:28:38;;;;;;;8.53;4.93;;;1.70;97.60;;;;;;5015233;28;20202;-66
2023/01/12 06:31:07;;;;;;;10.13;5.70;;;1.70;98.00;;;;;;5026162;28;20202;-66
2023/01/12 06:33:33;;;;;;;9.50;5.50;;;1.70;98.30;;;;;;5013019;28;20476;-66
2023/01/12 06:35:59;;;;;;;8.10;5.70;;;1.70;98.10;;;;;;5015144;28;20442;-67
2023/01/12 06:38:27;;;;;;;5.97;4.27;;;1.60;98.10;;;;;;5022443;28;20476;-66
2023/01/12 06:40:56;;;;;;;7.87;4.60;;;1.60;98.10;;;;;;5026927;28;20238;-65
2023/01/12 06:43:22;;;;;;;9.47;5.93;;;1.60;98.10;;;;;;5011723;28;20437;-66
2023/01/12 06:45:51;;;;;;;8.90;4.73;;;1.60;98.20;;;;;;5040572;28;20676;-65
2023/01/12 06:48:21;;;;;;;11.83;5.20;;;1.50;97.00;;;;;;5033500;28;20422;-67
2023/01/12 06:50:46;;;;;;;12.30;6.50;;;1.50;97.50;;;;;;5015105;28;20497;-67
2023/01/12 06:53:12;;;;;;;10.23;6.33;;;1.40;96.70;;;;;;5034128;28;20524;-67
2023/01/12 06:55:38;;;;;;;7.20;5.00;;;1.40;97.50;;;;;;5019395;28;20194;-67
2023/01/12 06:58:04;;;;;;;8.27;4.33;;;1.40;97.90;;;;;;5003399;28;20493;-67
2023/01/12 07:00:30;;;;;;;7.47;4.30;;;1.40;97.60;;;;;;5019309;28;20213;-68
2023/01/12 07:02:57;;;;;;;4.97;3.47;;;1.40;98.00;;;;;;5016802;28;20183;-67
2023/01/12 07:05:22;;;;;;;11.27;4.50;;;1.40;98.00;;;;;;5029278;28;20445;-66
2023/01/12 07:07:48;;;;;;;5.77;3.80;;;1.40;98.10;;;;;;5012602;28;20480;-67
2023/01/12 07:10:14;;;;;;;7.23;4.40;;;1.40;98.30;;;;;;5024772;28;20183;-66
2023/01/12 07:12:40;;;;;;;5.00;4.17;;;1.50;98.30;;;;;;5013889;28;20340;-66
2023/01/12 07:15:06;;;;;;;8.03;4.27;;;1.40;98.00;;;;;;5013801;28;20509;-68
2023/01/12 07:17:32;;;;;;;5.63;4.17;;;1.40;97.90;;;;;;5016156;28;20194;-67
2023/01/12 07:19:58;;;;;;;7.93;4.33;;;1.40;98.00;;;;;;5017091;28;20454;-67
2023/01/12 07:22:25;;;;;;;5.13;4.17;;;1.40;98.20;;;;;;5011383;28;20187;-67
2023/01/12 07:24:50;;;;;;;8.13;3.83;;;1.40;98.20;;;;;;5022686;28;20180;-67
2023/01/12 07:27:16;;;;;;;6.27;4.10;;;1.40;98.40;;;;;;5021064;28;20479;-67
2023/01/12 07:29:42;;;;;;;5.70;3.87;;;1.40;98.60;;;;;;5023098;28;20272;-67
2023/01/12 07:32:08;;;;;;;9.33;4.50;;;1.40;98.20;;;;;;5014948;28;20206;-68
2023/01/12 07:34:33;;;;;;;6.73;3.97;;;1.40;98.50;;;;;;5008385;28;20195;-68
2023/01/12 07:36:59;;;;;;;6.77;4.80;;;1.50;98.60;;;;;;5013187;28;20259;-69
2023/01/12 07:39:24;;;;;;;6.70;5.03;;;1.50;98.50;;;;;;5005385;28;20241;-68
2023/01/12 07:44:34;;;;;;;8.37;4.00;;;1.50;98.20;;;;;;5013715;28;20230;-71
2023/01/12 07:47:00;;;;;;;6.30;4.10;;;1.50;97.80;;;;;;4997794;28;20433;-69
2023/01/12 07:49:26;;;;;;;6.90;4.60;;;1.50;98.10;;;;;;5005939;28;20190;-70
2023/01/12 07:51:53;;;;;;;6.43;4.50;;;1.50;98.20;;;;;;5022278;28;20188;-70
2023/01/12 07:54:19;;;;;;;6.93;4.50;;;1.50;98.00;;;;;;5022706;28;20509;-70
2023/01/12 07:56:45;;;;;;;7.93;4.97;;;1.50;98.20;;;;;;5013817;28;20481;-70
2023/01/12 07:59:10;;;;;;;8.83;4.60;;;1.50;98.10;;;;;;5024702;28;20425;-70
2023/01/12 08:01:36;;;;;;;7.23;4.90;;;1.60;98.30;;;;;;5001189;28;20223;-69
2023/01/12 08:04:02;;;;;;;17.90;5.20;;;1.60;98.30;;;;;;5002076;28;20187;-69
2023/01/12 08:06:28;;;;;;;7.37;4.37;;;1.60;98.30;;;;;;5003300;28;20184;-68
2023/01/12 08:08:54;;;;;;;8.87;5.73;;;1.60;98.60;;;;;;5010203;28;20494;-68
2023/01/12 08:11:20;;;;;;;7.17;4.23;;;1.70;98.60;;;;;;5007498;28;20202;-68
2023/01/12 08:13:45;;;;;;;9.27;5.27;;;1.70;98.80;;;;;;5008454;28;20206;-70
2023/01/12 08:16:17;;;;;;;9.17;5.40;;;1.70;98.80;;;;;;5023200;28;20344;-69
2023/01/12 08:18:47;;;;;;;16.77;9.90;;;1.80;98.90;;;;;;5024640;28;20278;-67
2023/01/12 08:21:18;;;;;;;20.57;13.93;;;1.80;99.00;;;;;;5016243;28;20466;-68
2023/01/12 08:23:48;;;;;;;17.97;12.30;;;1.90;99.00;;;;;;5018259;28;20426;-71
2023/01/12 08:26:18;;;;;;;15.40;12.33;;;2.00;98.90;;;;;;5021642;28;20501;-72
2023/01/12 08:28:52;;;;;;;12.93;10.10;;;2.00;98.90;;;;;;5019628;28;20474;-71
2023/01/12 08:31:19;;;;;;;12.20;7.53;;;2.10;98.90;;;;;;5025885;28;20426;-71
2023/01/12 08:33:45;;;;;;;10.70;7.83;;;2.10;99.00;;;;;;5027882;28;20473;-70
2023/01/12 08:36:15;;;;;;;11.70;6.37;;;2.20;99.00;;;;;;5013496;28;20458;-70
2023/01/12 08:38:41;;;;;;;7.07;5.27;;;2.20;99.00;;;;;;5021098;28;20238;-70
2023/01/12 08:44:05;;;;;;;6.00;4.60;;;2.40;99.00;;;;;;5017630;28;20282;-73
2023/01/12 08:46:33;;;;;;;7.50;5.10;;;2.40;99.10;;;;;;5014275;28;20462;-75
2023/01/12 08:49:00;;;;;;;8.80;5.43;;;2.50;99.10;;;;;;5026536;28;20430;-74
2023/01/12 08:51:25;;;;;;;7.60;5.10;;;2.50;99.00;;;;;;5019670;28;20489;-74
2023/01/12 08:53:51;;;;;;;8.37;5.53;;;2.60;98.80;;;;;;5008469;28;20469;-74
2023/01/12 08:56:17;;;;;;;9.57;5.33;;;2.70;98.90;;;;;;5025967;28;20195;-74
2023/01/12 08:58:43;;;;;;;9.40;4.73;;;2.70;98.70;;;;;;5026590;28;20225;-71
2023/01/12 09:01:12;;;;;;;6.03;4.90;;;2.80;98.40;;;;;;5013931;28;20218;-71
2023/01/12 09:03:38;;;;;;;7.20;4.90;;;2.90;98.50;;;;;;5026716;28;20233;-71
2023/01/12 09:06:15;;;;;;;7.37;4.60;;;2.90;98.70;;;;;;5013960;28;20423;-71
2023/01/12 09:08:41;;;;;;;7.87;5.37;;;3.00;98.70;;;;;;5022705;28;20470;-71
2023/01/12 09:11:08;;;;;;;16.80;6.40;;;3.10;98.00;;;;;;5008478;28;20472;-71
2023/01/12 09:13:34;;;;;;;6.17;4.83;;;3.10;97.90;;;;;;5031908;28;20209;-71
2023/01/12 09:16:09;;;;;;;7.00;4.87;;;3.20;97.90;;;;;;5023197;28;20426;-70
2023/01/12 09:18:35;;;;;;;8.97;5.63;;;3.30;98.00;;;;;;5021819;28;20464;-70
2023/01/12 09:21:03;;;;;;;9.27;5.43;;;3.30;97.50;;;;;;5024963;28;20476;-73
